sensor_id;sensor_type;location;lat;lon;timestamp;pressure;altitude;pressure_sealevel;temperature;humidity
79230;BME280;68663;49.122;17.544;2023-07-02T00:01:31;98455.31;;;26.48;50.36
79230;BME280;68663;49.122;17.544;2023-07-02T00:03:56;98446.03;;;26.47;50.43
79230;BME280;68663;49.122;17.544;2023-07-02T00:06:22;98442.41;;;26.47;50.27
79230;BME280;68663;49.122;17.544;2023-07-02T00:08:47;98453.41;;;26.45;49.93
79230;BME280;68663;49.122;17.544;2023-07-02T00:11:16;98450.59;;;26.45;49.64
79230;BME280;68663;49.122;17.544;2023-07-02T00:13:41;98452.78;;;26.41;50.08
79230;BME280;68663;49.122;17.544;2023-07-02T00:16:07;98449.16;;;26.40;49.65
79230;BME280;68663;49.122;17.544;2023-07-02T00:18:32;98450.88;;;26.38;49.89
79230;BME280;68663;49.122;17.544;2023-07-02T00:21:02;98455.28;;;26.39;49.46
79230;BME280;68663;49.122;17.544;2023-07-02T00:23:30;98452.13;;;26.37;50.06
79230;BME280;68663;49.122;17.544;2023-07-02T00:25:58;98460.66;;;26.37;49.59
79230;BME280;68663;49.122;17.544;2023-07-02T00:28:24;98458.13;;;26.39;49.81
79230;BME280;68663;49.122;17.544;2023-07-02T00:30:49;98452.47;;;26.39;49.93
79230;BME280;68663;49.122;17.544;2023-07-02T00:33:15;98460.97;;;26.39;50.04
79230;BME280;68663;49.122;17.544;2023-07-02T00:35:41;98452.47;;;26.39;50.00
79230;BME280;68663;49.122;17.544;2023-07-02T00:38:06;98453.41;;;26.36;49.97
79230;BME280;68663;49.122;17.544;2023-07-02T00:40:32;98449.31;;;26.37;49.66
79230;BME280;68663;49.122;17.544;2023-07-02T00:42:57;98454.19;;;26.36;49.46
79230;BME280;68663;49.122;17.544;2023-07-02T00:45:22;98453.41;;;26.36;49.79
79230;BME280;68663;49.122;17.544;2023-07-02T00:47:54;98453.41;;;26.36;49.65
79230;BME280;68663;49.122;17.544;2023-07-02T00:50:20;98450.56;;;26.36;49.67
79230;BME280;68663;49.122;17.544;2023-07-02T00:52:46;98451.81;;;26.34;49.37
79230;BME280;68663;49.122;17.544;2023-07-02T00:55:11;98452.72;;;26.31;49.38
79230;BME280;68663;49.122;17.544;2023-07-02T00:57:37;98453.66;;;26.28;49.87
79230;BME280;68663;49.122;17.544;2023-07-02T01:00:02;98453.34;;;26.26;49.22
79230;BME280;68663;49.122;17.544;2023-07-02T01:02:28;98458.69;;;26.24;49.21
79230;BME280;68663;49.122;17.544;2023-07-02T01:04:55;98450.66;;;26.23;49.15
79230;BME280;68663;49.122;17.544;2023-07-02T01:07:25;98454.75;;;26.22;49.07
79230;BME280;68663;49.122;17.544;2023-07-02T01:09:51;98456.94;;;26.18;49.29
79230;BME280;68663;49.122;17.544;2023-07-02T01:12:17;98454.88;;;26.18;49.47
79230;BME280;68663;49.122;17.544;2023-07-02T01:14:47;98450.94;;;26.16;49.16
79230;BME280;68663;49.122;17.544;2023-07-02T01:17:13;98453.44;;;26.14;49.16
79230;BME280;68663;49.122;17.544;2023-07-02T01:19:56;98454.38;;;26.11;49.23
79230;BME280;68663;49.122;17.544;2023-07-02T01:22:26;98454.72;;;26.13;48.97
79230;BME280;68663;49.122;17.544;2023-07-02T01:24:51;98456.16;;;26.17;49.11
79230;BME280;68663;49.122;17.544;2023-07-02T01:27:18;98461.47;;;26.15;48.71
79230;BME280;68663;49.122;17.544;2023-07-02T01:29:44;98458.31;;;26.13;48.94
79230;BME280;68663;49.122;17.544;2023-07-02T01:32:12;98457.06;;;26.14;48.78
79230;BME280;68663;49.122;17.544;2023-07-02T01:34:37;98456.28;;;26.14;48.86
79230;BME280;68663;49.122;17.544;2023-07-02T01:37:03;98455.03;;;26.15;48.39
79230;BME280;68663;49.122;17.544;2023-07-02T01:39:29;98451.72;;;26.16;48.24
79230;BME280;68663;49.122;17.544;2023-07-02T01:42:00;98462.28;;;26.16;48.23
79230;BME280;68663;49.122;17.544;2023-07-02T01:44:31;98459.91;;;26.14;48.61
79230;BME280;68663;49.122;17.544;2023-07-02T01:46:57;98459.13;;;26.14;48.35
79230;BME280;68663;49.122;17.544;2023-07-02T01:49:24;98451.56;;;26.11;48.52
79230;BME280;68663;49.122;17.544;2023-07-02T01:51:55;98460.84;;;26.11;48.55
79230;BME280;68663;49.122;17.544;2023-07-02T01:54:22;98466.66;;;26.08;48.47
79230;BME280;68663;49.122;17.544;2023-07-02T01:56:47;98459.41;;;26.07;48.67
79230;BME280;68663;49.122;17.544;2023-07-02T01:59:13;98462.69;;;26.05;48.45
79230;BME280;68663;49.122;17.544;2023-07-02T02:01:39;98462.38;;;26.03;48.58
79230;BME280;68663;49.122;17.544;2023-07-02T02:04:09;98463.97;;;26.04;48.45
79230;BME280;68663;49.122;17.544;2023-07-02T02:06:36;98467.13;;;26.06;48.23
79230;BME280;68663;49.122;17.544;2023-07-02T02:09:02;98460.97;;;26.08;48.46
79230;BME280;68663;49.122;17.544;2023-07-02T02:11:29;98460.66;;;26.06;48.48
79230;BME280;68663;49.122;17.544;2023-07-02T02:13:55;98465.06;;;26.07;48.61
79230;BME280;68663;49.122;17.544;2023-07-02T02:16:20;98465.84;;;26.07;48.20
79230;BME280;68663;49.122;17.544;2023-07-02T02:18:46;98469.94;;;26.06;48.17
79230;BME280;68663;49.122;17.544;2023-07-02T02:21:11;98465.84;;;26.07;48.35
79230;BME280;68663;49.122;17.544;2023-07-02T02:23:36;98457.03;;;26.05;48.46
79230;BME280;68663;49.122;17.544;2023-07-02T02:26:02;98452.94;;;26.06;47.99
79230;BME280;68663;49.122;17.544;2023-07-02T02:28:27;98461.91;;;26.05;47.85
79230;BME280;68663;49.122;17.544;2023-07-02T02:30:52;98460.34;;;26.03;48.06
79230;BME280;68663;49.122;17.544;2023-07-02T02:33:18;98455.94;;;26.02;47.87
79230;BME280;68663;49.122;17.544;2023-07-02T02:35:43;98462.84;;;26.01;47.91
79230;BME280;68663;49.122;17.544;2023-07-02T02:38:09;98462.84;;;26.01;48.06
79230;BME280;68663;49.122;17.544;2023-07-02T02:40:34;98460.13;;;25.98;47.93
79230;BME280;68663;49.122;17.544;2023-07-02T02:43:00;98459.34;;;25.97;47.94
79230;BME280;68663;49.122;17.544;2023-07-02T02:45:25;98462.16;;;25.97;47.95
79230;BME280;68663;49.122;17.544;2023-07-02T02:47:50;98473.63;;;25.94;47.84
79230;BME280;68663;49.122;17.544;2023-07-02T02:50:16;98466.41;;;25.93;47.70
79230;BME280;68663;49.122;17.544;2023-07-02T02:52:41;98467.19;;;25.93;47.93
79230;BME280;68663;49.122;17.544;2023-07-02T02:55:09;98458.22;;;25.95;47.77
79230;BME280;68663;49.122;17.544;2023-07-02T02:57:36;98470.81;;;25.94;47.82
79230;BME280;68663;49.122;17.544;2023-07-02T03:00:02;98471.13;;;25.96;47.87
79230;BME280;68663;49.122;17.544;2023-07-02T03:02:27;98469.56;;;25.95;47.30
79230;BME280;68663;49.122;17.544;2023-07-02T03:04:53;98471.13;;;25.96;47.56
79230;BME280;68663;49.122;17.544;2023-07-02T03:07:19;98472.72;;;25.97;47.28
79230;BME280;68663;49.122;17.544;2023-07-02T03:09:44;98471.44;;;25.98;47.10
79230;BME280;68663;49.122;17.544;2023-07-02T03:12:10;98475.22;;;25.95;47.22
79230;BME280;68663;49.122;17.544;2023-07-02T03:14:35;98474.09;;;25.92;47.06
79230;BME280;68663;49.122;17.544;2023-07-02T03:17:01;98473.00;;;25.90;47.10
79230;BME280;68663;49.122;17.544;2023-07-02T03:19:26;98479.31;;;25.94;46.81
79230;BME280;68663;49.122;17.544;2023-07-02T03:21:52;98473.63;;;25.94;46.87
79230;BME280;68663;49.122;17.544;2023-07-02T03:24:17;98475.81;;;25.90;46.91
79230;BME280;68663;49.122;17.544;2023-07-02T03:26:43;98471.09;;;25.87;46.95
79230;BME280;68663;49.122;17.544;2023-07-02T03:29:09;98477.22;;;25.85;47.07
79230;BME280;68663;49.122;17.544;2023-07-02T03:31:35;98463.19;;;25.82;47.15
79230;BME280;68663;49.122;17.544;2023-07-02T03:34:06;98471.69;;;25.82;47.05
79230;BME280;68663;49.122;17.544;2023-07-02T03:36:32;98474.06;;;25.83;46.89
79230;BME280;68663;49.122;17.544;2023-07-02T03:38:58;98471.34;;;25.80;47.11
79230;BME280;68663;49.122;17.544;2023-07-02T03:41:24;98478.13;;;25.82;47.04
79230;BME280;68663;49.122;17.544;2023-07-02T03:43:50;98480.50;;;25.84;46.69
79230;BME280;68663;49.122;17.544;2023-07-02T03:46:15;98477.69;;;25.84;46.81
79230;BME280;68663;49.122;17.544;2023-07-02T03:48:41;98489.78;;;25.84;47.00
79230;BME280;68663;49.122;17.544;2023-07-02T03:51:06;98487.75;;;25.85;47.03
79230;BME280;68663;49.122;17.544;2023-07-02T03:53:32;98482.09;;;25.85;46.67
79230;BME280;68663;49.122;17.544;2023-07-02T03:55:57;98481.28;;;25.84;46.92
79230;BME280;68663;49.122;17.544;2023-07-02T03:58:23;98483.66;;;25.86;47.05
79230;BME280;68663;49.122;17.544;2023-07-02T04:00:48;98486.50;;;25.86;47.05
79230;BME280;68663;49.122;17.544;2023-07-02T04:03:16;98479.56;;;25.87;46.92
79230;BME280;68663;49.122;17.544;2023-07-02T04:05:42;98485.25;;;25.87;46.95
79230;BME280;68663;49.122;17.544;2023-07-02T04:08:08;98481.63;;;25.86;47.04
79230;BME280;68663;49.122;17.544;2023-07-02T04:10:33;98494.19;;;25.85;46.99
79230;BME280;68663;49.122;17.544;2023-07-02T04:12:59;98487.44;;;25.83;47.08
79230;BME280;68663;49.122;17.544;2023-07-02T04:15:24;98492.75;;;25.81;47.22
79230;BME280;68663;49.122;17.544;2023-07-02T04:17:51;98491.97;;;25.80;47.16
79230;BME280;68663;49.122;17.544;2023-07-02T04:20:17;98493.22;;;25.79;47.26
79230;BME280;68663;49.122;17.544;2023-07-02T04:22:44;98487.22;;;25.77;47.35
79230;BME280;68663;49.122;17.544;2023-07-02T04:25:11;98497.78;;;25.77;47.55
79230;BME280;68663;49.122;17.544;2023-07-02T04:27:40;98496.06;;;25.79;47.26
79230;BME280;68663;49.122;17.544;2023-07-02T04:30:06;98497.63;;;25.80;47.12
79230;BME280;68663;49.122;17.544;2023-07-02T04:32:33;98496.38;;;25.81;47.34
79230;BME280;68663;49.122;17.544;2023-07-02T04:34:59;98499.22;;;25.81;47.60
79230;BME280;68663;49.122;17.544;2023-07-02T04:37:24;98495.25;;;25.79;47.56
79230;BME280;68663;49.122;17.544;2023-07-02T04:39:49;98500.00;;;25.82;47.44
79230;BME280;68663;49.122;17.544;2023-07-02T04:42:15;98513.38;;;25.81;47.62
79230;BME280;68663;49.122;17.544;2023-07-02T04:44:40;98512.59;;;25.81;47.54
79230;BME280;68663;49.122;17.544;2023-07-02T04:47:08;98514.16;;;25.82;47.41
79230;BME280;68663;49.122;17.544;2023-07-02T04:49:34;98517.00;;;25.82;47.62
79230;BME280;68663;49.122;17.544;2023-07-02T04:51:59;98520.16;;;25.84;47.78
79230;BME280;68663;49.122;17.544;2023-07-02T04:54:25;98522.66;;;25.82;47.97
79230;BME280;68663;49.122;17.544;2023-07-02T04:56:50;98517.00;;;25.82;47.95
79230;BME280;68663;49.122;17.544;2023-07-02T04:59:16;98522.66;;;25.82;47.98
79230;BME280;68663;49.122;17.544;2023-07-02T05:01:42;98522.00;;;25.78;48.02
79230;BME280;68663;49.122;17.544;2023-07-02T05:04:10;98518.72;;;25.79;48.38
79230;BME280;68663;49.122;17.544;2023-07-02T05:06:38;98517.47;;;25.80;48.10
79230;BME280;68663;49.122;17.544;2023-07-02T05:09:04;98522.78;;;25.78;48.25
79230;BME280;68663;49.122;17.544;2023-07-02T05:11:30;98529.25;;;25.79;48.33
79230;BME280;68663;49.122;17.544;2023-07-02T05:13:55;98532.88;;;25.79;48.31
79230;BME280;68663;49.122;17.544;2023-07-02T05:16:20;98533.66;;;25.80;48.14
79230;BME280;68663;49.122;17.544;2023-07-02T05:18:46;98529.25;;;25.79;48.25
79230;BME280;68663;49.122;17.544;2023-07-02T05:21:11;98528.44;;;25.78;48.21
79230;BME280;68663;49.122;17.544;2023-07-02T05:23:37;98537.75;;;25.79;48.57
79230;BME280;68663;49.122;17.544;2023-07-02T05:26:02;98541.34;;;25.79;48.38
79230;BME280;68663;49.122;17.544;2023-07-02T05:28:28;98544.53;;;25.81;48.33
79230;BME280;68663;49.122;17.544;2023-07-02T05:30:53;98540.56;;;25.79;48.39
79230;BME280;68663;49.122;17.544;2023-07-02T05:33:19;98547.03;;;25.79;48.73
79230;BME280;68663;49.122;17.544;2023-07-02T05:35:45;98556.31;;;25.80;48.75
79230;BME280;68663;49.122;17.544;2023-07-02T05:38:11;98555.06;;;25.81;48.74
79230;BME280;68663;49.122;17.544;2023-07-02T05:40:36;98551.91;;;25.79;48.59
79230;BME280;68663;49.122;17.544;2023-07-02T05:43:02;98559.13;;;25.80;48.71
79230;BME280;68663;49.122;17.544;2023-07-02T05:45:28;98567.63;;;25.80;48.81
79230;BME280;68663;49.122;17.544;2023-07-02T05:47:54;98577.38;;;25.79;48.87
79230;BME280;68663;49.122;17.544;2023-07-02T05:50:19;98564.47;;;25.78;48.84
79230;BME280;68663;49.122;17.544;2023-07-02T05:52:45;98563.69;;;25.77;48.81
79230;BME280;68663;49.122;17.544;2023-07-02T05:55:11;98562.56;;;25.75;48.84
79230;BME280;68663;49.122;17.544;2023-07-02T05:57:37;98567.75;;;25.76;49.18
79230;BME280;68663;49.122;17.544;2023-07-02T06:00:06;98573.88;;;25.75;49.13
79230;BME280;68663;49.122;17.544;2023-07-02T06:02:32;98575.59;;;25.72;49.50
79230;BME280;68663;49.122;17.544;2023-07-02T06:04:57;98577.50;;;25.75;50.06
79230;BME280;68663;49.122;17.544;2023-07-02T06:07:24;98568.22;;;25.75;51.22
79230;BME280;68663;49.122;17.544;2023-07-02T06:09:50;98578.63;;;25.78;51.70
79230;BME280;68663;49.122;17.544;2023-07-02T06:12:15;98591.22;;;25.77;51.12
79230;BME280;68663;49.122;17.544;2023-07-02T06:14:41;98594.03;;;25.77;51.23
79230;BME280;68663;49.122;17.544;2023-07-02T06:17:07;98590.75;;;25.78;51.18
79230;BME280;68663;49.122;17.544;2023-07-02T06:19:33;98589.50;;;25.79;50.99
79230;BME280;68663;49.122;17.544;2023-07-02T06:21:59;98593.13;;;25.80;50.61
79230;BME280;68663;49.122;17.544;2023-07-02T06:24:25;98591.53;;;25.79;50.59
79230;BME280;68663;49.122;17.544;2023-07-02T06:26:50;98595.63;;;25.78;50.50
79230;BME280;68663;49.122;17.544;2023-07-02T06:29:16;98594.38;;;25.79;50.71
79230;BME280;68663;49.122;17.544;2023-07-02T06:31:41;98595.63;;;25.78;50.73
79230;BME280;68663;49.122;17.544;2023-07-02T06:34:06;98600.50;;;25.77;50.40
79230;BME280;68663;49.122;17.544;2023-07-02T06:36:34;98600.94;;;25.76;50.22
79230;BME280;68663;49.122;17.544;2023-07-02T06:38:59;98613.31;;;25.69;50.59
79230;BME280;68663;49.122;17.544;2023-07-02T06:41:25;98608.91;;;25.68;50.80
79230;BME280;68663;49.122;17.544;2023-07-02T06:43:50;98619.31;;;25.71;50.79
79230;BME280;68663;49.122;17.544;2023-07-02T06:46:16;98614.44;;;25.71;50.85
79230;BME280;68663;49.122;17.544;2023-07-02T06:48:41;98616.94;;;25.69;50.70
79230;BME280;68663;49.122;17.544;2023-07-02T06:51:07;98614.13;;;25.69;50.24
79230;BME280;68663;49.122;17.544;2023-07-02T06:53:33;98607.22;;;25.70;50.15
79230;BME280;68663;49.122;17.544;2023-07-02T06:55:59;98610.38;;;25.73;49.79
79230;BME280;68663;49.122;17.544;2023-07-02T06:58:24;98603.13;;;25.71;49.88
79230;BME280;68663;49.122;17.544;2023-07-02T07:00:50;98615.25;;;25.72;49.90
79230;BME280;68663;49.122;17.544;2023-07-02T07:03:16;98612.41;;;25.72;49.91
79230;BME280;68663;49.122;17.544;2023-07-02T07:05:41;98617.28;;;25.71;49.58
79230;BME280;68663;49.122;17.544;2023-07-02T07:08:07;98627.34;;;25.73;49.35
79230;BME280;68663;49.122;17.544;2023-07-02T07:10:32;98621.69;;;25.73;49.61
79230;BME280;68663;49.122;17.544;2023-07-02T07:13:03;98623.72;;;25.72;49.77
79230;BME280;68663;49.122;17.544;2023-07-02T07:15:33;98628.16;;;25.73;49.46
79230;BME280;68663;49.122;17.544;2023-07-02T07:18:00;98626.56;;;25.72;49.58
79230;BME280;68663;49.122;17.544;2023-07-02T07:20:25;98626.69;;;25.68;49.79
79230;BME280;68663;49.122;17.544;2023-07-02T07:22:51;98625.13;;;25.67;49.92
79230;BME280;68663;49.122;17.544;2023-07-02T07:25:16;98626.69;;;25.68;50.20
79230;BME280;68663;49.122;17.544;2023-07-02T07:27:41;98634.41;;;25.68;50.01
79230;BME280;68663;49.122;17.544;2023-07-02T07:30:07;98635.19;;;25.68;49.83
79230;BME280;68663;49.122;17.544;2023-07-02T07:32:32;98633.16;;;25.69;50.26
79230;BME280;68663;49.122;17.544;2023-07-02T07:34:58;98642.88;;;25.68;49.87
79230;BME280;68663;49.122;17.544;2023-07-02T07:37:24;98646.50;;;25.68;49.95
79230;BME280;68663;49.122;17.544;2023-07-02T07:39:50;98640.84;;;25.68;49.91
79230;BME280;68663;49.122;17.544;2023-07-02T07:42:15;98644.00;;;25.70;49.35
79230;BME280;68663;49.122;17.544;2023-07-02T07:44:42;98641.19;;;25.70;49.81
79230;BME280;68663;49.122;17.544;2023-07-02T07:47:07;98645.59;;;25.71;49.45
79230;BME280;68663;49.122;17.544;2023-07-02T07:49:33;98640.72;;;25.72;49.52
79230;BME280;68663;49.122;17.544;2023-07-02T07:51:58;98648.75;;;25.74;49.32
79230;BME280;68663;49.122;17.544;2023-07-02T07:54:24;98638.22;;;25.74;49.40
79230;BME280;68663;49.122;17.544;2023-07-02T07:56:50;98633.34;;;25.75;49.47
79230;BME280;68663;49.122;17.544;2023-07-02T07:59:15;98632.88;;;25.76;49.67
79230;BME280;68663;49.122;17.544;2023-07-02T08:01:40;98630.84;;;25.77;49.65
79230;BME280;68663;49.122;17.544;2023-07-02T08:04:06;98630.53;;;25.75;49.15
79230;BME280;68663;49.122;17.544;2023-07-02T08:06:32;98635.84;;;25.73;49.41
79230;BME280;68663;49.122;17.544;2023-07-02T08:08:57;98636.97;;;25.75;49.37
79230;BME280;68663;49.122;17.544;2023-07-02T08:11:22;98630.97;;;25.73;49.42
79230;BME280;68663;49.122;17.544;2023-07-02T08:13:48;98638.69;;;25.73;49.34
79230;BME280;68663;49.122;17.544;2023-07-02T08:16:13;98630.53;;;25.75;49.35
79230;BME280;68663;49.122;17.544;2023-07-02T08:18:39;98625.19;;;25.77;49.52
79230;BME280;68663;49.122;17.544;2023-07-02T08:21:04;98628.81;;;25.77;49.31
79230;BME280;68663;49.122;17.544;2023-07-02T08:23:32;98630.25;;;25.82;49.41
79230;BME280;68663;49.122;17.544;2023-07-02T08:25:57;98633.44;;;25.84;49.34
79230;BME280;68663;49.122;17.544;2023-07-02T08:28:22;98621.19;;;25.87;49.18
79230;BME280;68663;49.122;17.544;2023-07-02T08:30:48;98631.59;;;25.90;49.23
79230;BME280;68663;49.122;17.544;2023-07-02T08:33:13;98627.97;;;25.89;49.37
79230;BME280;68663;49.122;17.544;2023-07-02T08:35:39;98624.66;;;25.91;49.46
79230;BME280;68663;49.122;17.544;2023-07-02T08:38:04;98618.66;;;25.89;48.96
79230;BME280;68663;49.122;17.544;2023-07-02T08:40:30;98617.41;;;25.90;49.04
79230;BME280;68663;49.122;17.544;2023-07-02T08:42:55;98612.22;;;25.88;48.68
79230;BME280;68663;49.122;17.544;2023-07-02T08:45:22;98625.00;;;25.93;49.60
79230;BME280;68663;49.122;17.544;2023-07-02T08:47:49;98612.09;;;25.92;49.04
79230;BME280;68663;49.122;17.544;2023-07-02T08:50:16;98616.84;;;25.95;49.96
79230;BME280;68663;49.122;17.544;2023-07-02T08:52:42;98611.16;;;25.95;49.27
79230;BME280;68663;49.122;17.544;2023-07-02T08:55:10;98617.75;;;25.92;49.46
79230;BME280;68663;49.122;17.544;2023-07-02T08:57:35;98621.69;;;25.94;48.99
79230;BME280;68663;49.122;17.544;2023-07-02T09:00:08;98623.28;;;25.95;49.51
79230;BME280;68663;49.122;17.544;2023-07-02T09:02:34;98624.06;;;25.96;49.83
79230;BME280;68663;49.122;17.544;2023-07-02T09:05:00;98626.91;;;25.96;49.79
79230;BME280;68663;49.122;17.544;2023-07-02T09:07:26;98628.16;;;25.95;49.59
79230;BME280;68663;49.122;17.544;2023-07-02T09:09:51;98616.84;;;25.95;49.23
79230;BME280;68663;49.122;17.544;2023-07-02T09:12:30;98619.66;;;25.95;49.34
79230;BME280;68663;49.122;17.544;2023-07-02T09:15:01;98618.41;;;25.96;48.31
79230;BME280;68663;49.122;17.544;2023-07-02T09:17:35;98619.19;;;25.96;49.42
79230;BME280;68663;49.122;17.544;2023-07-02T09:20:03;98626.13;;;25.95;49.06
79230;BME280;68663;49.122;17.544;2023-07-02T09:22:30;98627.69;;;25.96;49.21
79230;BME280;68663;49.122;17.544;2023-07-02T09:24:58;98625.66;;;25.97;49.46
79230;BME280;68663;49.122;17.544;2023-07-02T09:27:39;98633.69;;;25.98;49.25
79230;BME280;68663;49.122;17.544;2023-07-02T09:30:12;98627.25;;;25.98;48.81
79230;BME280;68663;49.122;17.544;2023-07-02T09:32:39;98621.56;;;25.98;48.84
79230;BME280;68663;49.122;17.544;2023-07-02T09:35:07;98626.00;;;25.99;48.66
79230;BME280;68663;49.122;17.544;2023-07-02T09:37:33;98634.84;;;26.01;49.19
79230;BME280;68663;49.122;17.544;2023-07-02T09:39:59;98632.00;;;26.01;48.70
79230;BME280;68663;49.122;17.544;2023-07-02T09:42:28;98626.34;;;26.01;48.86
79230;BME280;68663;49.122;17.544;2023-07-02T09:44:59;98623.50;;;26.01;48.35
79230;BME280;68663;49.122;17.544;2023-07-02T09:47:27;98622.25;;;26.02;48.63
79230;BME280;68663;49.122;17.544;2023-07-02T09:50:03;98618.19;;;26.03;48.94
79230;BME280;68663;49.122;17.544;2023-07-02T09:52:33;98612.06;;;26.05;48.79
79230;BME280;68663;49.122;17.544;2023-07-02T09:55:01;98604.81;;;26.03;47.82
79230;BME280;68663;49.122;17.544;2023-07-02T09:57:27;98608.44;;;26.04;48.38
79230;BME280;68663;49.122;17.544;2023-07-02T10:00:01;98607.50;;;26.07;48.90
79230;BME280;68663;49.122;17.544;2023-07-02T10:02:28;98611.91;;;26.08;48.69
79230;BME280;68663;49.122;17.544;2023-07-02T10:04:55;98603.41;;;26.08;48.39
79230;BME280;68663;49.122;17.544;2023-07-02T10:07:30;98600.13;;;26.10;48.39
79230;BME280;68663;49.122;17.544;2023-07-02T10:09:59;98602.16;;;26.09;48.59
79230;BME280;68663;49.122;17.544;2023-07-02T10:12:28;98603.09;;;26.06;48.34
79230;BME280;68663;49.122;17.544;2023-07-02T10:14:57;98601.50;;;26.05;48.47
79230;BME280;68663;49.122;17.544;2023-07-02T10:17:54;98594.25;;;26.04;48.61
79230;BME280;68663;49.122;17.544;2023-07-02T10:20:31;98591.44;;;26.04;48.10
79230;BME280;68663;49.122;17.544;2023-07-02T10:22:58;98585.44;;;26.02;48.42
79230;BME280;68663;49.122;17.544;2023-07-02T10:25:26;98584.19;;;26.03;48.61
79230;BME280;68663;49.122;17.544;2023-07-02T10:27:53;98581.69;;;26.05;49.11
79230;BME280;68663;49.122;17.544;2023-07-02T10:30:36;98583.25;;;26.06;49.04
79230;BME280;68663;49.122;17.544;2023-07-02T10:33:15;98578.84;;;26.05;48.98
79230;BME280;68663;49.122;17.544;2023-07-02T10:35:42;98581.69;;;26.05;48.64
79230;BME280;68663;49.122;17.544;2023-07-02T10:38:23;98583.25;;;26.06;48.80
79230;BME280;68663;49.122;17.544;2023-07-02T10:41:01;98591.75;;;26.06;48.86
79230;BME280;68663;49.122;17.544;2023-07-02T10:43:30;98584.84;;;26.07;48.66
79230;BME280;68663;49.122;17.544;2023-07-02T10:45:59;98583.25;;;26.06;48.84
79230;BME280;68663;49.122;17.544;2023-07-02T10:48:26;98580.75;;;26.08;48.34
79230;BME280;68663;49.122;17.544;2023-07-02T10:50:53;98577.59;;;26.06;48.09
79230;BME280;68663;49.122;17.544;2023-07-02T10:53:19;98583.25;;;26.06;48.28
79230;BME280;68663;49.122;17.544;2023-07-02T10:55:45;98583.25;;;26.06;48.45
79230;BME280;68663;49.122;17.544;2023-07-02T10:58:12;98577.59;;;26.06;48.80
79230;BME280;68663;49.122;17.544;2023-07-02T11:00:45;98578.38;;;26.07;48.55
79230;BME280;68663;49.122;17.544;2023-07-02T11:03:21;98571.94;;;26.06;49.02
79230;BME280;68663;49.122;17.544;2023-07-02T11:05:48;98573.19;;;26.05;48.44
79230;BME280;68663;49.122;17.544;2023-07-02T11:08:14;98578.53;;;26.03;48.87
79230;BME280;68663;49.122;17.544;2023-07-02T11:10:40;98583.03;;;26.00;49.00
79230;BME280;68663;49.122;17.544;2023-07-02T11:13:15;98580.19;;;26.00;48.99
79230;BME280;68663;49.122;17.544;2023-07-02T11:15:41;98580.19;;;26.00;48.89
79230;BME280;68663;49.122;17.544;2023-07-02T11:18:13;98576.56;;;26.00;48.94
79230;BME280;68663;49.122;17.544;2023-07-02T11:20:43;98578.19;;;26.01;48.95
79230;BME280;68663;49.122;17.544;2023-07-02T11:23:23;98576.94;;;26.02;48.88
79230;BME280;68663;49.122;17.544;2023-07-02T11:25:56;98569.22;;;26.02;49.09
79230;BME280;68663;49.122;17.544;2023-07-02T11:28:23;98563.09;;;26.04;49.23
79230;BME280;68663;49.122;17.544;2023-07-02T11:30:48;98560.28;;;26.04;49.40
79230;BME280;68663;49.122;17.544;2023-07-02T11:33:14;98561.84;;;26.05;49.52
79230;BME280;68663;49.122;17.544;2023-07-02T11:35:39;98562.19;;;26.07;49.70
79230;BME280;68663;49.122;17.544;2023-07-02T11:38:04;98553.34;;;26.05;50.27
79230;BME280;68663;49.122;17.544;2023-07-02T11:40:30;98544.38;;;26.07;50.17
79230;BME280;68663;49.122;17.544;2023-07-02T11:42:55;98550.84;;;26.07;50.18
79230;BME280;68663;49.122;17.544;2023-07-02T11:45:21;98533.84;;;26.07;50.17
79230;BME280;68663;49.122;17.544;2023-07-02T11:47:46;98532.59;;;26.08;49.97
79230;BME280;68663;49.122;17.544;2023-07-02T11:50:11;98539.50;;;26.07;49.52
79230;BME280;68663;49.122;17.544;2023-07-02T11:52:38;98536.69;;;26.07;49.05
79230;BME280;68663;49.122;17.544;2023-07-02T11:55:03;98532.28;;;26.06;48.74
79230;BME280;68663;49.122;17.544;2023-07-02T11:57:29;98537.47;;;26.08;49.07
79230;BME280;68663;49.122;17.544;2023-07-02T11:59:54;98544.84;;;26.05;48.23
79230;BME280;68663;49.122;17.544;2023-07-02T12:02:20;98539.97;;;26.06;48.40
79230;BME280;68663;49.122;17.544;2023-07-02T12:04:45;98542.94;;;26.02;48.09
79230;BME280;68663;49.122;17.544;2023-07-02T12:07:11;98533.19;;;26.03;47.10
79230;BME280;68663;49.122;17.544;2023-07-02T12:09:38;98542.94;;;26.02;47.13
79230;BME280;68663;49.122;17.544;2023-07-02T12:12:04;98542.16;;;26.01;47.69
79230;BME280;68663;49.122;17.544;2023-07-02T12:14:30;98542.94;;;26.02;47.51
79230;BME280;68663;49.122;17.544;2023-07-02T12:16:55;98535.69;;;26.01;47.20
79230;BME280;68663;49.122;17.544;2023-07-02T12:19:20;98545.41;;;26.00;47.15
79230;BME280;68663;49.122;17.544;2023-07-02T12:21:46;98541.38;;;26.01;47.14
79230;BME280;68663;49.122;17.544;2023-07-02T12:24:11;98549.88;;;26.01;46.38
79230;BME280;68663;49.122;17.544;2023-07-02T12:26:37;98552.22;;;26.02;46.01
79230;BME280;68663;49.122;17.544;2023-07-02T12:29:02;98541.69;;;26.03;46.12
79230;BME280;68663;49.122;17.544;2023-07-02T12:31:29;98544.19;;;26.01;46.21
79230;BME280;68663;49.122;17.544;2023-07-02T12:33:54;98541.22;;;26.05;45.14
79230;BME280;68663;49.122;17.544;2023-07-02T12:36:20;98539.97;;;26.06;46.43
79230;BME280;68663;49.122;17.544;2023-07-02T12:38:45;98546.44;;;26.06;45.75
79230;BME280;68663;49.122;17.544;2023-07-02T12:41:11;98542.34;;;26.07;45.66
79230;BME280;68663;49.122;17.544;2023-07-02T12:43:36;98546.44;;;26.06;44.13
79230;BME280;68663;49.122;17.544;2023-07-02T12:46:01;98537.94;;;26.06;43.34
79230;BME280;68663;49.122;17.544;2023-07-02T12:48:27;98537.47;;;26.08;44.78